Weather observations for the past three days for
Brady, Curtis Field Airport
Metric (Imperial)
Date Time (cdt) Wind (kph) Vis. (km) Weather Sky Cond. Temperature (ºC) Relative Humidity Wind Chill (°C) Heat Index (°C) Pressure Precipitation (cm)
Air Dwpt 6 hour altimeter (cm) sea level (mb) 1 hr 3 hr 6 hr
Max. Min.
31 10:35 S 17 16.09 Fair CLR 29 20 58% 31 76.35 0.0
31 10:15 S 17 16.09 Fair CLR 28 20 62% 30 76.35 0.0
31 09:55 SW 17 16.09 Fair CLR 27 20 66% 29 76.35 0.0
31 09:35 S 15 16.09 Fair CLR 27 21 70% 29 76.33 0.0
31 08:55 S 11 16.09 Fair CLR 25 21 79% 26 76.33 0.0
31 08:35 S 13 16.09 Fair CLR 24 20 78% 24 76.33 0.0
31 08:15 S 9 16.09 Partly Cloudy SCT019 24 21 83% 24 76.33 0.0
31 07:55 S 7 16.09 A Few Clouds FEW019 23 20 83% 76.3 0.0
31 07:35 S 11 16.09 Fair CLR 22 20 88% 76.28 0.0
31 07:15 S 13 16.09 Fair CLR 22 19 83% 76.25 0.0
31 06:55 SE 9 16.09 Fair CLR 22 19 83% 76.25 0.0
31 06:35 SE 7 16.09 Fair CLR 22 19 83% 76.25 0.0
31 06:15 SE 7 16.09 Fair CLR 22 19 83% 76.25 0.0
31 05:55 Calm 16.09 Fair CLR 22 19 83% 76.25 0.0
31 05:35 Calm 16.09 Fair CLR 23 19 78% 76.25 0.0
31 05:15 S 7 16.09 Fair CLR 23 19 78% 76.23 0.0
31 04:55 SE 9 16.09 Fair CLR 23 19 78% 76.23 0.0
31 04:35 S 7 16.09 Fair CLR 23 19 78% 76.23 0.0
31 04:15 Calm 16.09 Fair CLR 23 19 78% 76.23 0.0
31 03:55 Calm 16.09 Fair CLR 24 19 74% 25 76.23 0.0
31 03:35 SE 11 16.09 Fair CLR 24 19 74% 25 76.23 0.0
31 03:10 SE 7 16.09 Fair CLR 23 18 74% 76.23 0.0
31 02:55 SE 9 16.09 Fair CLR 24 18 69% 25 76.25 0.0
31 02:35 SE 7 16.09 Fair CLR 24 18 69% 25 76.25 0.0
31 02:15 SE 9 16.09 Fair CLR 24 18 69% 25 76.25 0.0
31 01:55 SE 11 16.09 Fair CLR 25 17 61% 26 76.25 0.0
31 01:35 SE 13 16.09 Fair CLR 25 17 61% 26 76.25 0.0
31 01:15 SE 11 16.09 Fair CLR 25 16 57% 26 76.23 0.0
31 00:55 SE 7 16.09 Fair CLR 25 16 57% 26 76.23 0.0
31 00:35 SE 7 16.09 Fair CLR 25 16 57% 26 76.2 0.0
31 00:15 SE 9 16.09 Fair CLR 26 16 54% 27 76.2 0.0
30 23:55 SE 7 16.09 Fair CLR 26 16 54% 27 76.2 0.0
30 23:35 SE 7 16.09 Fair CLR 26 16 54% 27 76.2 0.0
30 23:15 SE 9 16.09 Fair CLR 27 16 51% 27 76.2 0.0
30 22:55 SE 7 16.09 Fair CLR 27 16 51% 27 76.2 0.0
30 22:35 SE 7 16.09 Fair CLR 27 16 51% 27 76.17 0.0
30 22:15 SE 7 16.09 Fair CLR 28 16 48% 28 76.17 0.0
30 21:55 SE 9 16.09 Fair CLR 28 16 48% 28 76.15 0.0
30 21:35 SE 9 16.09 Fair CLR 29 16 45% 29 76.12 0.0
30 21:15 SE 13 16.09 Fair CLR 30 15 40% 30 76.1 0.0
30 20:55 SE 9 16.09 Fair CLR 30 15 40% 30 76.07 0.0
30 20:35 SE 9 16.09 Fair CLR 31 15 38% 31 76.07 0.0
30 20:15 SE 13 16.09 Partly Cloudy SCT085 32 14 33% 31 76.07 0.0
30 19:55 SE 11 16.09 Mostly Cloudy BKN085 33 13 30% 32 76.05 0.0
30 19:35 SE 17 16.09 Fair CLR 34 13 28% 33 76.05 0.0
30 19:15 SE 15 G 24 16.09 Fair CLR 34 13 28% 33 76.02 0.0
30 18:55 SE 13 G 26 16.09 Fair CLR 35 13 26% 34 76.02 0.0
30 18:35 S 19 16.09 A Few Clouds FEW085 35 13 26% 34 76.05 0.0
30 18:15 SE 15 16.09 Mostly Cloudy BKN085 35 13 26% 34 76.05 0.0
30 17:55 SE 17 G 28 16.09 Mostly Cloudy BKN085 35 13 26% 34 76.05 0.0
30 17:35 SE 17 16.09 Fair CLR 35 14 28% 34 76.05 0.0
30 17:15 SE 13 G 24 16.09 A Few Clouds FEW085 36 13 25% 35 76.05 0.0
30 16:55 SE 11 G 26 16.09 Partly Cloudy SCT085 36 13 25% 35 76.05 0.0
30 16:35 S 15 G 26 16.09 A Few Clouds FEW080 35 13 26% 34 76.05 0.0
30 16:15 S 17 16.09 Mostly Cloudy BKN080 35 14 28% 34 76.07 0.0
30 15:55 SE 19 16.09 Fair CLR 35 14 28% 34 76.1 0.0
30 15:35 Vrbl 11 G 26 16.09 A Few Clouds FEW080 35 14 28% 34 76.12 0.0
30 15:15 SE 19 16.09 Partly Cloudy SCT075 35 15 30% 35 76.17 0.0
30 14:55 S 17 G 28 16.09 A Few Clouds FEW070 35 15 30% 35 76.2 0.0
30 14:35 S 19 G 30 16.09 A Few Clouds FEW070 35 16 32% 35 76.23 0.0
30 14:15 SW 17 G 31 16.09 A Few Clouds FEW065 34 15 32% 34 76.23 0.0
30 13:55 S 15 16.09 Partly Cloudy SCT060 SCT080 34 17 36% 35 76.25 0.0
30 13:35 SW 13 G 24 16.09 Mostly Cloudy BKN060 BKN080 33 17 38% 33 76.28 0.0
30 13:15 SW 19 16.09 Fair CLR 33 16 36% 33 76.3 0.0
30 12:55 S 19 16.09 Fair CLR 33 17 38% 33 76.33 0.0
30 12:35 S 15 16.09 Fair CLR 32 17 41% 32 76.33 0.0
30 12:15 Vrbl 7 G 26 16.09 Fair CLR 32 18 43% 33 76.38 0.0
30 11:55 SW 19 16.09 Fair CLR 31 18 46% 32 76.38 0.0
30 11:35 S 13 G 26 16.09 Fair CLR 30 18 49% 31 76.4 0.0
30 11:15 S 13 16.09 Fair CLR 30 19 52% 31 76.4 0.0
30 10:55 S 11 16.09 Fair CLR 29 19 55% 30 76.4 0.0
30 10:15 S 15 16.09 Fair CLR 28 20 62% 30 76.4 0.0
30 09:55 SW 19 16.09 Fair CLR 27 20 66% 29 76.38 0.0
30 09:35 SW 15 16.09 Fair CLR 26 20 70% 27 76.38 0.0
30 09:15 SW 13 16.09 Fair CLR 26 20 70% 27 76.38 0.0
30 08:55 S 11 16.09 Fair CLR 25 20 74% 26 76.38 0.0
30 08:35 S 9 16.09 Fair CLR 24 20 78% 24 76.35 0.0
30 08:15 S 9 16.09 Fair CLR 23 20 83% 76.35 0.0
30 07:55 S 7 16.09 Fair CLR 22 20 88% 76.33 0.0
30 07:35 S 6 16.09 Fair CLR 22 20 88% 76.33 0.0
30 07:15 S 9 16.09 Fair CLR 22 20 88% 76.3 0.0
30 06:55 S 9 16.09 Fair CLR 22 20 88% 76.3 0.0
30 06:35 SE 7 16.09 A Few Clouds FEW044 22 19 83% 76.3 0.0
30 06:15 SE 9 16.09 Fair CLR 22 19 83% 76.28 0.0
30 05:55 SE 6 16.09 A Few Clouds FEW080 23 19 78% 76.28 0.0
30 05:35 S 7 16.09 Fair CLR 23 19 78% 76.25 0.0
30 05:15 S 9 16.09 Fair CLR 23 19 78% 76.25 0.0
30 04:55 S 11 16.09 Fair CLR 24 19 74% 25 76.25 0.0
30 04:35 S 11 16.09 Fair CLR 24 19 74% 25 76.25 0.0
30 04:15 S 7 16.09 Fair CLR 24 19 74% 25 76.25 0.0
30 03:55 S 13 16.09 Fair CLR 24 19 74% 25 76.25 0.0
30 03:35 S 13 16.09 Fair CLR 24 18 69% 25 76.25 0.0
30 03:15 S 11 16.09 Fair CLR 24 18 69% 25 76.25 0.0
30 02:55 S 11 16.09 Fair CLR 24 18 69% 25 76.28 0.0
30 02:35 S 7 16.09 Fair CLR 24 18 69% 25 76.28 0.0
30 02:15 S 9 16.09 Fair CLR 25 18 65% 26 76.28 0.0
30 01:55 S 13 16.09 Fair CLR 25 17 61% 26 76.28 0.0
30 01:35 S 13 16.09 Fair CLR 26 17 58% 27 76.28 0.0
30 01:15 S 13 16.09 Fair CLR 26 17 58% 27 76.28 0.0
30 00:55 S 7 16.09 Fair CLR 26 17 58% 27 76.28 0.0
30 00:35 SE 9 16.09 Fair CLR 26 17 58% 27 76.28 0.0
30 00:10 S 11 16.09 Fair CLR 27 17 54% 28 76.28 0.0
29 23:55 S 11 16.09 Fair CLR 27 17 54% 28 76.28 0.0
29 23:35 S 11 16.09 Fair CLR 27 17 54% 28 76.28 0.0
29 23:15 S 15 16.09 Fair CLR 27 17 54% 28 76.28 0.0
29 22:55 SE 9 16.09 Fair CLR 27 17 54% 28 76.28 0.0
29 22:35 SE 11 16.09 Fair CLR 27 17 54% 28 76.28 0.0
29 22:15 SE 9 16.09 Fair CLR 28 17 51% 29 76.28 0.0
29 21:55 SE 9 16.09 Fair CLR 28 17 51% 29 76.25 0.0
29 21:35 SE 9 16.09 Fair CLR 29 17 48% 29 76.23 0.0
29 21:15 SE 9 16.09 Fair CLR 30 16 43% 30 76.2 0.0
29 20:55 SE 9 16.09 Fair CLR 30 16 43% 30 76.17 0.0
29 20:35 SE 11 16.09 Fair CLR 31 16 40% 31 76.17 0.0
29 20:15 SE 9 16.09 Fair CLR 32 16 38% 32 76.15 0.0
29 19:55 SE 11 G 26 16.09 Fair CLR 33 16 36% 33 76.15 0.0
29 19:35 SE 15 G 24 16.09 Fair CLR 34 16 34% 34 76.12 0.0
29 19:15 SE 15 G 24 16.09 Fair CLR 34 16 34% 34 76.12 0.0
29 18:55 SE 13 G 22 16.09 Fair CLR 34 16 34% 34 76.12 0.0
29 18:35 SE 15 16.09 Fair CLR 35 16 32% 35 76.12 0.0
29 18:15 SE 11 16.09 Fair CLR 35 15 30% 35 76.12 0.0
29 17:55 SE 15 16.09 Fair CLR 35 15 30% 35 76.12 0.0
29 17:35 SE 19 16.09 Fair CLR 35 16 32% 35 76.15 0.0
29 17:15 SE 9 16.09 Fair CLR 35 15 30% 35 76.15 0.0
29 16:55 S 13 16.09 A Few Clouds FEW085 35 15 30% 35 76.17 0.0
29 16:35 SE 11 G 22 16.09 A Few Clouds FEW080 FEW090 35 14 28% 34 76.2 0.0
29 16:15 Vrbl 9 16.09 A Few Clouds FEW080 34 15 32% 34 76.2 0.0
29 15:55 S 15 G 26 16.09 Fair CLR 35 15 30% 35 76.23 0.0
29 15:35 S 13 G 28 16.09 Fair CLR 35 16 32% 35 76.25 0.0
29 15:15 SW 19 16.09 Fair CLR 35 16 32% 35 76.28 0.0
29 14:55 Vrbl 9 16.09 A Few Clouds FEW070 34 16 34% 34 76.33 0.0
29 14:35 Calm 16.09 Partly Cloudy SCT070 34 16 34% 34 76.33 0.0
29 14:15 S 13 16.09 A Few Clouds FEW060 34 17 36% 35 76.35 0.0
29 13:55 S 13 G 24 16.09 A Few Clouds FEW060 34 17 36% 35 76.38 0.0
29 13:35 S 11 G 24 16.09 A Few Clouds FEW055 FEW080 33 18 41% 34 76.38 0.0
29 13:15 S 20 16.09 Partly Cloudy SCT055 SCT080 32 18 43% 33 76.4 0.0
29 12:50 S 11 G 22 16.09 Fair CLR 33 18 41% 34 76.43 0.0
29 12:35 S 19 16.09 Fair CLR 33 18 41% 34 76.45 0.0
29 12:15 Vrbl 7 G 20 16.09 Fair CLR 32 17 41% 32 76.45 0.0
29 11:55 S 7 G 19 16.09 Fair CLR 32 18 43% 33 76.45 0.0
29 11:35 Vrbl 6 16.09 Fair CLR 32 18 43% 33 76.48 0.0
29 11:15 Calm 16.09 Fair CLR 31 19 49% 32 76.48 0.0
29 10:55 S 6 16.09 Fair CLR 30 19 52% 31 76.48 0.0
29 10:35 S 7 16.09 Fair CLR 30 19 52% 31 76.48 0.0
29 10:15 Vrbl 9 16.09 Fair CLR 29 20 58% 31 76.45 0.0
29 09:55 Vrbl 9 16.09 Fair CLR 28 20 62% 30 76.45 0.0
29 09:35 SW 7 16.09 Fair CLR 27 20 66% 29 76.48 0.0
29 09:15 SW 9 16.09 Fair CLR 26 20 70% 27 76.48 0.0
29 08:55 SW 11 16.09 Fair CLR 25 20 74% 26 76.48 0.0
29 08:35 Calm 16.09 Fair CLR 24 20 78% 24 76.45 0.0
29 08:15 Calm 16.09 Fair CLR 22 20 88% 76.45 0.0
29 07:55 Calm 16.09 Fair CLR 22 20 88% 76.45 0.0
29 07:35 S 6 16.09 Fair CLR 22 20 88% 76.45 0.0
29 07:20 Calm 16.09 Fair CLR 22 20 88% 76.45 0.0
29 06:55 Calm 16.09 Partly Cloudy FEW046 SCT050 22 20 88% 76.43 0.0
29 06:35 S 6 16.09 Mostly Cloudy BKN050 BKN055 22 20 88% 76.43 0.0
29 06:15 S 7 16.09 Mostly Cloudy BKN050 BKN060 22 20 88% 76.43 0.0
29 05:55 S 7 16.09 Mostly Cloudy BKN055 22 20 88% 76.43 0.0
29 05:35 Calm 16.09 Mostly Cloudy BKN055 BKN060 22 20 88% 76.43 0.0
29 05:15 Calm 16.09 Mostly Cloudy BKN055 BKN065 22 20 88% 76.43 0.0
29 04:55 SE 9 16.09 Mostly Cloudy BKN050 BKN060 22 20 88% 76.43 0.0
29 04:35 S 6 16.09 Mostly Cloudy FEW044 BKN050 BKN060 23 20 83% 76.4 0.0
29 04:15 SW 7 16.09 Mostly Cloudy SCT047 BKN055 23 19 78% 76.4 0.0
29 03:55 Calm 16.09 Mostly Cloudy SCT048 BKN055 23 20 83% 76.4 0.0
29 03:35 Calm 16.09 Mostly Cloudy FEW048 SCT055 BKN070 23 20 83% 76.4 0.0
29 03:15 Calm 16.09 Partly Cloudy FEW045 FEW055 SCT070 23 20 83% 76.4 0.0
29 02:55 SW 6 16.09 A Few Clouds FEW045 FEW050 23 19 78% 76.4 0.0
29 02:35 Calm 16.09 A Few Clouds FEW040 FEW050 FEW060 24 19 74% 25 76.4 0.0
29 02:15 Calm 16.09 Partly Cloudy FEW035 SCT043 SCT060 23 20 83% 76.4 0.0
29 01:55 Calm 16.09 Partly Cloudy FEW038 FEW044 SCT055 24 20 78% 24 76.4 0.0
29 01:35 S 7 16.09 Mostly Cloudy FEW035 BKN048 BKN055 24 20 78% 24 76.4 0.0
29 01:15 SE 6 16.09 Mostly Cloudy BKN047 BKN055 24 20 78% 24 76.4 0.0
29 00:55 S 7 16.09 Mostly Cloudy SCT050 BKN055 25 20 74% 26 76.4 0.0
29 00:35 S 9 16.09 Mostly Cloudy BKN049 BKN055 25 19 69% 26 76.4 0.0
29 00:15 S 9 16.09 Partly Cloudy SCT048 25 19 69% 26 76.4 0.0
28 23:55 SE 13 G 22 16.09 A Few Clouds FEW046 26 19 65% 27 76.4 0.0
28 23:35 SE 15 G 26 16.09 Partly Cloudy SCT046 SCT050 26 20 70% 27 76.43 0.0
28 23:15 SE 13 G 24 16.09 A Few Clouds FEW048 26 20 70% 27 76.4 0.0
28 22:55 SE 13 16.09 Fair CLR 27 20 66% 29 76.38 0.0
28 22:35 SE 15 16.09 A Few Clouds FEW055 27 20 66% 29 76.38 0.0
28 22:15 SE 9 16.09 Fair CLR 27 20 66% 29 76.33 0.0
28 21:55 S 7 16.09 Fair CLR 27 20 66% 29 76.33 0.0
28 21:35 S 6 16.09 Fair CLR 28 20 62% 30 76.3 0.0
28 21:15 Calm 16.09 Fair CLR 28 20 62% 30 76.28 0.0
28 20:55 SE 9 16.09 Fair CLR 29 19 55% 30 76.28 0.0
28 20:35 SE 11 16.09 Fair CLR 29 19 55% 30 76.25 0.0
28 20:15 SE 9 16.09 Fair CLR 30 19 52% 31 76.25 0.0
28 19:55 SE 11 16.09 Fair CLR 31 18 46% 32 76.25 0.0
28 19:35 E 13 16.09 Fair CLR 32 18 43% 33 76.23 0.0
28 19:15 E 20 16.09 Fair CLR 33 17 38% 33 76.2 0.0
28 18:55 E 19 16.09 Fair CLR 33 17 38% 33 76.2 0.0
28 18:35 E 15 16.09 Fair CLR 33 16 36% 33 76.2 0.0
28 18:15 E 15 G 26 16.09 Fair CLR 34 17 36% 35 76.2 0.0
28 17:55 E 17 16.09 Fair CLR 35 17 34% 36 76.2 0.0
28 17:35 E 20 16.09 A Few Clouds FEW070 35 17 34% 36 76.17 0.0
28 17:15 Vrbl 11 16.09 Partly Cloudy SCT070 SCT095 35 17 34% 36 76.2 0.0
28 16:55 E 15 16.09 Mostly Cloudy SCT070 BKN090 35 16 32% 35 76.23 0.0
28 16:35 E 9 16.09 A Few Clouds FEW065 35 17 34% 36 76.25 0.0
28 16:15 E 13 16.09 A Few Clouds FEW065 35 17 34% 36 76.28 0.0
28 15:55 SE 11 16.09 Fair CLR 34 17 36% 35 76.3 0.0
28 15:35 E 9 16.09 Fair CLR 34 17 36% 35 76.33 0.0
28 15:15 Vrbl 6 16.09 Fair CLR 34 17 36% 35 76.35 0.0
28 14:55 E 13 16.09 Fair CLR 34 17 36% 35 76.38 0.0
28 14:35 SE 9 G 20 16.09 Fair CLR 34 17 36% 35 76.4 0.0
28 14:15 E 9 G 22 16.09 Fair CLR 33 17 38% 33 76.4 0.0
28 13:55 Vrbl 9 16.09 Fair CLR 33 16 36% 33 76.43 0.0
28 13:35 Calm 16.09 Fair CLR 33 16 36% 33 76.45 0.0
28 13:15 SE 7 16.09 Fair CLR 32 16 38% 32 76.48 0.0
28 12:55 Calm 16.09 Fair CLR 32 17 41% 32 76.5 0.0
28 12:35 Calm 16.09 Fair CLR 31 16 40% 31 76.5 0.0
28 12:15 Calm 16.09 Fair CLR 32 17 41% 32 76.53 0.0
28 11:55 Vrbl 6 16.09 Fair CLR 31 17 43% 31 76.53 0.0
28 11:35 Vrbl 9 16.09 Fair CLR 31 17 43% 31 76.53 0.0
28 11:15 SE 9 G 19 16.09 Fair CLR 30 17 46% 30 76.53 0.0
Date Time (cdt) Wind (kph) Vis. (km) Weather Sky Cond. Air Dwpt Max. Min. Relative Humidity Wind Chill (°C) Heat Index (°C) altimeter (cm) sea level (mb) 1 hr 3 hr 6 hr
6 hour
Temperature (ºC) Pressure Precipitation (cm)